Home > Products > Valid Products > MTR

000
SAUS46 KSTO 310953
MTRBLU
METAR KBLU 310952Z AUTO 00000KT 10SM CLR 06/03 A3000 RMK AO2 SLP109
T00610033





000
SAUS46 KSTO 310853
MTRBLU
METAR KBLU 310852Z AUTO 18009KT 10SM CLR 10/M01 A3000 RMK AO2 SLP094
T01001006 56007





000
SAUS46 KSTO 310753
MTRBLU
METAR KBLU 310752Z AUTO 17009KT 10SM FEW100 BKN120 12/M02 A3000 RMK
AO2 SLP092 T01171017 401830106





000
SAUS46 KSTO 310654
MTRBLU
METAR KBLU 310652Z AUTO 15011G20KT 110V180 10SM CLR 13/M03 A3001 RMK
AO2 SLP092 T01281028





000
SAUS46 KSTO 310553
MTRBLU
METAR KBLU 310552Z AUTO 14006KT 10SM CLR 12/M02 A3002 RMK AO2 SLP100
T01221017 10150 20106 56010





000
SAUS46 KSTO 310453
MTRBLU
METAR KBLU 310452Z AUTO 15005KT 10SM CLR 12/00 A3003 RMK AO2 SLP108
T01170000





000
SAUS46 KSTO 310453
MTRBLU
METAR KBLU 310452Z AUTO 15005KT 10SM CLR 12/00 A3003 RMK AO2 SLP108
T01170000





000
SAUS46 KSTO 310353
MTRBLU
METAR KBLU 310352Z AUTO 12003KT 10SM CLR 11/01 A3004 RMK AO2 SLP117
T01110011





000
SAUS46 KSTO 310353
MTRBLU
METAR KBLU 310352Z AUTO 12003KT 10SM CLR 11/01 A3004 RMK AO2 SLP117
T01110011





000
SAUS46 KSTO 310254
MTRBLU
METAR KBLU 310252Z AUTO 17003KT 10SM CLR 12/01 A3006 RMK AO2 SLP122
T01220006 55002





000
SAUS46 KSTO 310154
MTRBLU
METAR KBLU 310152Z AUTO VRB03KT 10SM CLR 13/02 A3005 RMK AO2 SLP115
T01280017





000
SAUS46 KSTO 310154
MTRBLU
METAR KBLU 310152Z AUTO VRB03KT 10SM CLR 13/02 A3005 RMK AO2 SLP115
T01280017





000
SAUS46 KSTO 310054
MTRBLU
METAR KBLU 310052Z AUTO 00000KT 10SM CLR 13/02 A3006 RMK AO2 SLP118
T01280017





000
SAUS46 KSTO 302354
MTRBLU
METAR KBLU 302352Z AUTO 20005KT 10SM CLR 15/01 A3007 RMK AO2 SLP115
T01500011 10183 20150 55006





000
SAUS46 KSTO 302254
MTRBLU
METAR KBLU 302252Z AUTO 19007KT 10SM CLR 16/M01 A3006 RMK AO2 SLP112
T01611011





000
SAUS46 KSTO 302154
MTRBLU
METAR KBLU 302152Z AUTO 18009KT 10SM CLR 17/M02 A3007 RMK AO2 SLP112
T01721022





000
SAUS46 KSTO 302154
MTRBLU
METAR KBLU 302152Z AUTO 18009KT 10SM CLR 17/M02 A3007 RMK AO2 SLP112
T01721022





000
SAUS46 KSTO 302053
MTRBLU
METAR KBLU 302052Z AUTO 17012G19KT 10SM CLR 18/M03 A3009 RMK AO2
SLP114 T01831028 58018





000
SAUS46 KSTO 301953
MTRBLU
METAR KBLU 301952Z AUTO 18012KT 10SM CLR 18/M04 A3011 RMK AO2 SLP122
T01831039





000
SAUS46 KSTO 301854
MTRBLU
METAR KBLU 301852Z AUTO 14009KT 070V160 10SM CLR 18/M03 A3014 RMK
AO2 SLP133 T01781033





000
SAUS46 KSTO 301753
MTRBLU
METAR KBLU 301752Z AUTO 16007KT 10SM CLR 17/M04 A3015 RMK AO2 SLP138
T01721039 10172 20139 50002





000
SAUS46 KSTO 301653
MTRBLU
METAR KBLU 301652Z AUTO 14004KT 10SM CLR 16/M04 A3015 RMK AO2 SLP145
T01561039





000
SAUS46 KSTO 301653
MTRBLU
METAR KBLU 301652Z AUTO 14004KT 10SM CLR 16/M04 A3015 RMK AO2 SLP145
T01561039





000
SAUS46 KSTO 301553
MTRBLU
METAR KBLU 301552Z AUTO 12004KT 10SM CLR 14/M02 A3016 RMK AO2 SLP152
T01441017





000
SAUS46 KSTO 301453
MTRBLU
METAR KBLU 301452Z AUTO 12003KT 10SM CLR 14/M03 A3014 RMK AO2 SLP145
T01441028 55000





000
SAUS46 KSTO 301353
MTRBLU
METAR KBLU 301352Z AUTO 14003KT 10SM CLR 14/M03 A3014 RMK AO2 SLP147
T01441028





000
SAUS46 KSTO 301253
MTRBLU
METAR KBLU 301252Z AUTO 14004KT 10SM CLR 15/M04 A3015 RMK AO2 SLP140
T01501044





000
SAUS46 KSTO 301153
MTRBLU
METAR KBLU 301152Z AUTO 12003KT 10SM CLR 15/M04 A3015 RMK AO2 SLP134
T01501044 10156 20139 58014





000
SAUS46 KSTO 301053
MTRBLU
METAR KBLU 301052Z AUTO 11004KT 10SM CLR 15/M04 A3016 RMK AO2 SLP137
T01501044





000
SAUS46 KSTO 301053
MTRBLU
METAR KBLU 301052Z AUTO 11004KT 10SM CLR 15/M04 A3016 RMK AO2 SLP137
T01501044





000
SAUS46 KSTO 300953
MTRBLU
METAR KBLU 300952Z AUTO 12004KT 10SM CLR 14/M03 A3018 RMK AO2 SLP147
T01441033





000
SAUS46 KSTO 300853
MTRBLU
METAR KBLU 300852Z AUTO 11003KT 10SM CLR 14/00 A3019 RMK AO2 SLP150
T01440000 56009





000
SAUS46 KSTO 300753
MTRBLU
METAR KBLU 300752Z AUTO 11003KT 10SM CLR 14/02 A3020 RMK AO2 SLP156
T01440022 401940128





000
SAUS46 KSTO 300653
MTRBLU
METAR KBLU 300652Z AUTO 00000KT 10SM CLR 14/04 A3022 RMK AO2 SLP161
T01390044





000
SAUS46 KSTO 300553
MTRBLU
METAR KBLU 300552Z AUTO 00000KT 10SM CLR 14/06 A3022 RMK AO2 SLP164
T01440056 10178 20133 53002





000
SAUS46 KSTO 300453
MTRBLU
METAR KBLU 300452Z AUTO 00000KT 10SM CLR 14/07 A3022 RMK AO2 SLP169
T01390067





000
SAUS46 KSTO 300453
MTRBLU
METAR KBLU 300452Z AUTO 00000KT 10SM CLR 14/07 A3022 RMK AO2 SLP169
T01390067





000
SAUS46 KSTO 300353
MTRBLU
METAR KBLU 300352Z AUTO 00000KT 10SM CLR 13/07 A3022 RMK AO2 SLP174
T01330067





000
SAUS46 KSTO 300253
MTRBLU
METAR KBLU 300252Z AUTO 00000KT 10SM CLR 14/07 A3022 RMK AO2 SLP174
T01440067 55001





000
SAUS46 KSTO 300153
MTRBLU
METAR KBLU 300152Z AUTO 00000KT 10SM CLR 13/07 A3021 RMK AO2 SLP172
T01330067





000
SAUS46 KSTO 300053
MTRBLU
METAR KBLU 300052Z AUTO 26003KT 10SM CLR 16/07 A3022 RMK AO2 SLP170
T01610067





000
SAUS46 KSTO 292353
MTRBLU
METAR KBLU 292352Z AUTO 24005KT 10SM CLR 18/06 A3022 RMK AO2 SLP166
T01780061 10194 20172 56007





000
SAUS46 KSTO 292253
MTRBLU
METAR KBLU 292252Z AUTO VRB04KT 10SM CLR 19/06 A3023 RMK AO2 SLP162
T01890056





000
SAUS46 KSTO 292253
MTRBLU
METAR KBLU 292252Z AUTO VRB04KT 10SM CLR 19/06 A3023 RMK AO2 SLP162
T01890056





000
SAUS46 KSTO 292153
MTRBLU
METAR KBLU 292152Z AUTO 20005KT 10SM CLR 19/04 A3023 RMK AO2 SLP163
T01890044





000
SAUS46 KSTO 292053
MTRBLU
METAR KBLU 292052Z AUTO VRB04KT 10SM CLR 19/04 A3025 RMK AO2 SLP169
T01890039 58014





000
SAUS46 KSTO 291953
MTRBLU
METAR KBLU 291952Z AUTO 24004KT 10SM CLR 18/04 A3027 RMK AO2 SLP180
T01780044





000
SAUS46 KSTO 291853
MTRBLU
METAR KBLU 291852Z AUTO 04003KT 10SM CLR 18/02 A3029 RMK AO2 SLP186
T01780017





000
SAUS46 KSTO 291753
MTRBLU
METAR KBLU 291752Z AUTO VRB04KT 10SM CLR 17/05 A3029 RMK AO2 SLP192
T01720050 10178 20128 50006





000
SAUS46 KSTO 291653
MTRBLU
METAR KBLU 291652Z AUTO VRB03KT 10SM CLR 16/04 A3030 RMK AO2 SLP196
T01610039





000
SAUS46 KSTO 291553
MTRBLU
METAR KBLU 291552Z AUTO 04003KT 10SM CLR 14/04 A3029 RMK AO2 SLP198
T01390039





000
SAUS46 KSTO 291453
MTRBLU
METAR KBLU 291452Z AUTO 04003KT 10SM CLR 13/03 A3027 RMK AO2 SLP193
T01330028 53004 PWINO $





000
SAUS46 KSTO 291353
MTRBLU
METAR KBLU 291352Z AUTO 04004KT 10SM CLR 14/03 A3027 RMK AO2 SLP190
T01390028 PWINO $





000
SAUS46 KSTO 291253
MTRBLU
METAR KBLU 291252Z AUTO VRB04KT 10SM CLR 13/03 A3026 RMK AO2 SLP189
T01280028 PWINO $





000
SAUS46 KSTO 291153
MTRBLU
METAR KBLU 291152Z AUTO 05004KT 10SM CLR 13/02 A3026 RMK AO2 SLP183
T01330017 10150 20133 58006 PWINO $





000
SAUS46 KSTO 291053
MTRBLU
METAR KBLU 291052Z AUTO VRB04KT 10SM CLR 14/01 A3027 RMK AO2 SLP184
T01390006 PWINO $





000
SAUS46 KSTO 290953
MTRBLU
METAR KBLU 290952Z AUTO 03004KT 10SM CLR 14/01 A3028 RMK AO2 SLP188
T01390011 PWINO $





000
SAUS46 KSTO 290853
MTRBLU
METAR KBLU 290852Z AUTO 00000KT 10SM CLR 14/00 A3028 RMK AO2 SLP188
T01390000 58001 PWINO $





000
SAUS46 KSTO 290753
MTRBLU
METAR KBLU 290752Z AUTO 00000KT 10SM CLR 14/M02 A3028 RMK AO2 SLP184
T01441022 401780089 PWINO $





000
SAUS46 KSTO 290653
MTRBLU
METAR KBLU 290652Z AUTO 05003KT 10SM CLR 14/02 A3029 RMK AO2 SLP189
T01390017 PWINO $





000
SAUS46 KSTO 290553
MTRBLU
METAR KBLU 290552Z AUTO 04004KT 10SM CLR 13/03 A3028 RMK AO2 SLP195
T01330028 10167 20133 51009 PWINO $





000
SAUS46 KSTO 290453
MTRBLU
METAR KBLU 290452Z AUTO 02004KT 10SM CLR 14/03 A3028 RMK AO2 SLP190
T01390028 PWINO $





000
SAUS46 KSTO 290453
MTRBLU
METAR KBLU 290452Z AUTO 02004KT 10SM CLR 14/03 A3028 RMK AO2 SLP190
T01390028 PWINO $





000
SAUS46 KSTO 290353
MTRBLU
METAR KBLU 290352Z AUTO 02003KT 10SM CLR 14/03 A3026 RMK AO2 SLP186
T01440028 PWINO $





000
SAUS46 KSTO 290253
MTRBLU
METAR KBLU 290252Z AUTO 04003KT 10SM CLR 14/03 A3025 RMK AO2 SLP189
T01390033 53006 PWINO $





000
SAUS46 KSTO 290153
MTRBLU
METAR KBLU 290152Z AUTO 33003KT 10SM CLR 13/04 A3025 RMK AO2 SLP192
T01330044 PWINO $





000
SAUS46 KSTO 290053
MTRBLU
METAR KBLU 290052Z AUTO 25003KT 10SM CLR 15/04 A3023 RMK AO2 SLP184
T01500044 PWINO $





000
SAUS46 KSTO 282353
MTRBLU
METAR KBLU 282352Z AUTO 27004KT 10SM CLR 17/03 A3023 RMK AO2 SLP178
T01670033 10178 20150 53002 PWINO $





000
SAUS46 KSTO 282253
MTRBLU
METAR KBLU 282252Z AUTO VRB05KT 10SM CLR 17/02 A3023 RMK AO2 SLP174
T01720017 PWINO $





000
SAUS46 KSTO 282153
MTRBLU
METAR KBLU 282152Z AUTO 26006KT 10SM CLR 17/01 A3023 RMK AO2 SLP180
T01670011 PWINO $





000
SAUS46 KSTO 282053
MTRBLU
METAR KBLU 282052Z AUTO 25006KT 10SM CLR 17/01 A3022 RMK AO2 SLP176
T01720006 50000 PWINO $





000
SAUS46 KSTO 281953
MTRBLU
METAR KBLU 281952Z AUTO 28005KT 10SM CLR 17/01 A3023 RMK AO2 SLP180
T01720006 PWINO $





000
SAUS46 KSTO 281853
MTRBLU
METAR KBLU 281852Z AUTO 32003KT 10SM CLR 17/00 A3023 RMK AO2 SLP178
T01720000 PWINO $





000
SAUS46 KSTO 281753
MTRBLU
METAR KBLU 281752Z AUTO 26004KT 10SM CLR 16/M02 A3022 RMK AO2 SLP182
T01561017 10167 20106 51009 PWINO $





000
SAUS46 KSTO 281653
MTRBLU
METAR KBLU 281652Z AUTO 00000KT 10SM CLR 16/M06 A3022 RMK AO2 SLP181
T01561056 PWINO $





000
SAUS46 KSTO 281653
MTRBLU
METAR KBLU 281652Z AUTO 00000KT 10SM CLR 16/M06 A3022 RMK AO2 SLP181
T01561056 PWINO $





000
SAUS46 KSTO 281553
MTRBLU
METAR KBLU 281552Z AUTO 00000KT 10SM CLR 14/M12 A3021 RMK AO2 SLP181
T01441117 PWINO $





000
SAUS46 KSTO 281553
MTRBLU
METAR KBLU 281552Z AUTO 00000KT 10SM CLR 14/M12 A3021 RMK AO2 SLP181
T01441117 PWINO $





000
SAUS46 KSTO 281453
MTRBLU
METAR KBLU 281452Z AUTO 00000KT 10SM CLR 12/M12 A3019 RMK AO2 SLP182
T01221122 53013 PWINO $





000
SAUS46 KSTO 281353
MTRBLU
METAR KBLU 281352Z AUTO 00000KT 10SM CLR 11/M09 A3017 RMK AO2 SLP178
T01111094





000
SAUS46 KSTO 281254
MTRBLU
METAR KBLU 281252Z AUTO 00000KT 10SM CLR 11/M09 A3016 RMK AO2 SLP172
T01061094





000
SAUS46 KSTO 281153
MTRBLU
METAR KBLU 281152Z AUTO 05003KT 10SM CLR 11/M11 A3015 RMK AO2 SLP163
T01111111 10122 20089 51001





000
SAUS46 KSTO 281053
MTRBLU
METAR KBLU 281052Z AUTO 06003KT 10SM CLR 11/M13 A3014 RMK AO2 SLP160
T01111128





    US Dept of Commerce
    National Oceanic and Atmospheric Administration
    National Weather Service
    1325 East West Highway
    Silver Spring, MD 20910
    Page Author: NWS Internet Services Team
Disclaimer
Information Quality
Credits
Glossary
Privacy Policy
Freedom of Information Act (FOIA)
About Us
Career Opportunities